createdAt,value
2023-02-23T00:00:29.932Z,2.00
2023-02-23T00:02:59.130Z,2.13
2023-02-23T00:05:26.971Z,2.00
2023-02-23T00:07:55.012Z,1.90
2023-02-23T00:10:25.403Z,2.33
2023-02-23T00:12:52.751Z,1.90
2023-02-23T00:15:19.925Z,2.20
2023-02-23T00:17:47.847Z,2.00
2023-02-23T00:20:16.599Z,2.13
2023-02-23T00:22:43.811Z,2.10
2023-02-23T00:25:15.193Z,2.47
2023-02-23T00:27:45.944Z,2.33
2023-02-23T00:30:13.740Z,2.50
2023-02-23T00:32:41.565Z,1.87
2023-02-23T00:35:16.664Z,2.30
2023-02-23T00:37:48.226Z,2.40
2023-02-23T00:40:16.726Z,2.40
2023-02-23T00:42:45.102Z,2.30
2023-02-23T00:45:15.424Z,2.37
2023-02-23T00:47:43.358Z,2.40
2023-02-23T00:50:15.871Z,2.33
2023-02-23T00:52:43.750Z,2.43
2023-02-23T00:55:12.640Z,2.23
2023-02-23T00:57:39.835Z,2.60
2023-02-23T01:00:18.793Z,2.70
2023-02-23T01:02:45.973Z,2.33
2023-02-23T01:05:13.721Z,2.73
2023-02-23T01:07:41.387Z,2.83
2023-02-23T01:10:19.234Z,2.50
2023-02-23T01:12:50.969Z,2.50
2023-02-23T01:15:18.903Z,3.00
2023-02-23T01:17:46.389Z,2.40
2023-02-23T01:20:19.022Z,2.90
2023-02-23T01:22:47.487Z,2.70
2023-02-23T01:25:16.621Z,2.80
2023-02-23T01:27:43.860Z,2.93
2023-02-23T01:30:12.117Z,3.33
2023-02-23T01:32:39.627Z,2.60
2023-02-23T01:35:08.688Z,3.23
2023-02-23T01:37:36.762Z,3.37
2023-02-23T01:40:09.669Z,3.23
2023-02-23T01:42:41.961Z,3.20
2023-02-23T01:45:44.467Z,3.37
2023-02-23T01:48:14.258Z,3.00
2023-02-23T01:50:47.894Z,3.00
2023-02-23T01:53:15.331Z,3.10
2023-02-23T01:55:43.890Z,3.40
2023-02-23T01:58:15.276Z,3.23
2023-02-23T02:00:46.550Z,3.03
2023-02-23T02:03:18.004Z,3.20
2023-02-23T02:05:45.648Z,3.60
2023-02-23T02:08:13.341Z,3.30
2023-02-23T02:10:40.571Z,3.53
2023-02-23T02:13:09.994Z,3.30
2023-02-23T02:15:41.268Z,3.07
2023-02-23T02:18:33.413Z,3.43
2023-02-23T02:21:24.754Z,3.30
2023-02-23T02:23:55.420Z,3.50
2023-02-23T02:26:29.459Z,3.40
2023-02-23T02:28:59.787Z,3.30
2023-02-23T02:31:34.448Z,3.70
2023-02-23T02:34:22.547Z,3.67
2023-02-23T02:36:58.616Z,3.60
2023-02-23T02:39:38.186Z,3.63
2023-02-23T02:42:20.096Z,3.33
2023-02-23T02:44:55.216Z,3.47
2023-02-23T02:47:45.332Z,3.47
2023-02-23T02:50:18.802Z,3.50
2023-02-23T02:52:49.893Z,3.60
2023-02-23T02:55:23.817Z,4.10
2023-02-23T02:57:53.164Z,4.03
2023-02-23T03:00:40.114Z,3.57
2023-02-23T03:03:26.285Z,3.57
2023-02-23T03:06:13.758Z,3.73
2023-02-23T03:09:08.403Z,4.10
2023-02-23T03:12:03.987Z,3.80
2023-02-23T03:14:55.642Z,3.73
2023-02-23T03:18:04.272Z,3.80
2023-02-23T03:20:52.882Z,3.70
2023-02-23T03:23:58.961Z,3.90
2023-02-23T03:26:50.604Z,3.70
2023-02-23T03:29:39.608Z,3.73
2023-02-23T03:32:34.458Z,4.27
2023-02-23T03:35:35.134Z,4.27
2023-02-23T03:38:32.808Z,3.33
2023-02-23T03:41:19.558Z,3.77
2023-02-23T03:44:10.341Z,4.17
2023-02-23T03:46:57.699Z,4.07
2023-02-23T03:49:45.954Z,4.10
2023-02-23T03:52:35.948Z,3.97
2023-02-23T03:55:28.852Z,4.07
2023-02-23T03:58:17.019Z,4.33
2023-02-23T04:01:04.973Z,4.20
2023-02-23T04:03:53.639Z,3.93
2023-02-23T04:06:41.070Z,4.13
2023-02-23T04:09:27.156Z,3.97
2023-02-23T04:12:30.464Z,3.80
2023-02-23T04:15:16.141Z,4.07
2023-02-23T04:17:43.877Z,3.80
2023-02-23T04:20:14.659Z,4.10
2023-02-23T04:22:41.842Z,4.33
2023-02-23T04:25:09.143Z,4.37
2023-02-23T04:27:36.753Z,4.30
2023-02-23T04:30:04.232Z,4.70
2023-02-23T04:32:31.523Z,4.63
2023-02-23T04:34:58.740Z,4.60
2023-02-23T04:37:25.898Z,4.70
2023-02-23T04:39:53.033Z,4.53
2023-02-23T04:42:20.492Z,4.80
2023-02-23T04:44:47.691Z,5.20
2023-02-23T04:47:15.737Z,5.00
2023-02-23T04:49:43.611Z,5.03
2023-02-23T04:52:10.774Z,5.17
2023-02-23T04:54:41.757Z,4.70
2023-02-23T04:57:09.492Z,5.13
2023-02-23T04:59:36.654Z,5.40
2023-02-23T05:02:03.844Z,5.00
2023-02-23T05:04:31.044Z,6.00
2023-02-23T05:06:58.302Z,5.57
2023-02-23T05:09:25.456Z,5.93
2023-02-23T05:11:52.609Z,6.27
2023-02-23T05:14:19.747Z,6.00
2023-02-23T05:16:46.875Z,5.43
2023-02-23T05:19:14.239Z,6.40
2023-02-23T05:21:41.901Z,5.70
2023-02-23T05:24:09.444Z,6.40
2023-02-23T05:26:36.669Z,5.93
2023-02-23T05:29:03.988Z,6.50
2023-02-23T05:31:31.399Z,5.73
2023-02-23T05:33:58.673Z,6.57
2023-02-23T05:36:25.803Z,6.80
2023-02-23T05:38:53.034Z,6.47
2023-02-23T05:41:21.533Z,6.70
2023-02-23T05:43:51.273Z,7.63
2023-02-23T05:46:24.028Z,7.50
2023-02-23T05:48:51.631Z,7.03
2023-02-23T05:51:19.155Z,7.40
2023-02-23T05:53:46.985Z,6.53
2023-02-23T05:56:20.686Z,7.13
2023-02-23T05:58:51.775Z,7.53
2023-02-23T06:01:19.245Z,8.20
2023-02-23T06:03:46.752Z,8.20
2023-02-23T06:06:14.023Z,8.13
2023-02-23T06:08:41.281Z,7.90
2023-02-23T06:11:08.446Z,8.57
2023-02-23T06:13:35.752Z,8.47
2023-02-23T06:16:02.958Z,8.87
2023-02-23T06:18:30.364Z,7.80
2023-02-23T06:21:00.528Z,8.80
2023-02-23T06:23:31.320Z,8.00
2023-02-23T06:25:59.556Z,6.93
2023-02-23T06:28:27.464Z,9.40
2023-02-23T06:30:55.486Z,9.17
2023-02-23T06:33:22.767Z,8.60
2023-02-23T06:35:49.948Z,8.87
2023-02-23T06:38:17.299Z,9.13
2023-02-23T06:40:44.443Z,8.80
2023-02-23T06:43:11.752Z,9.70
2023-02-23T06:45:39.192Z,8.37
2023-02-23T06:48:06.498Z,9.10
2023-02-23T06:50:33.724Z,8.87
2023-02-23T06:53:00.977Z,8.30
2023-02-23T06:55:28.157Z,7.07
2023-02-23T06:57:55.370Z,8.60
2023-02-23T07:00:22.894Z,8.63
2023-02-23T07:02:50.143Z,8.73
2023-02-23T07:05:17.358Z,8.77
2023-02-23T07:07:45.546Z,9.03
2023-02-23T07:10:13.137Z,8.57
2023-02-23T07:12:40.306Z,9.00
2023-02-23T07:15:07.754Z,9.50
2023-02-23T07:17:34.900Z,9.40
2023-02-23T07:20:02.071Z,8.80
2023-02-23T07:22:30.440Z,8.63
2023-02-23T07:24:58.233Z,9.40
2023-02-23T07:27:27.545Z,9.20
2023-02-23T07:29:54.734Z,9.13
2023-02-23T07:32:22.082Z,8.90
2023-02-23T07:34:49.387Z,9.10
2023-02-23T07:37:17.207Z,9.53
2023-02-23T07:39:44.419Z,8.83
2023-02-23T07:42:11.555Z,9.37
2023-02-23T07:44:39.304Z,9.00
2023-02-23T07:47:07.334Z,9.23
2023-02-23T07:49:35.079Z,9.43
2023-02-23T07:52:02.340Z,9.07
2023-02-23T07:54:29.571Z,9.50
2023-02-23T07:56:57.587Z,9.07
2023-02-23T07:59:24.794Z,9.87
2023-02-23T08:01:52.412Z,9.97
2023-02-23T08:04:19.760Z,9.50
2023-02-23T08:06:46.922Z,10.00
2023-02-23T08:09:14.107Z,9.47
2023-02-23T08:11:41.287Z,9.60
2023-02-23T08:14:10.460Z,10.10
2023-02-23T08:16:37.700Z,9.43
2023-02-23T08:19:05.007Z,8.90
2023-02-23T08:21:32.630Z,9.83
2023-02-23T08:23:59.930Z,9.13
2023-02-23T08:26:27.389Z,9.23
2023-02-23T08:28:55.413Z,9.27
2023-02-23T08:31:24.548Z,9.17
2023-02-23T08:33:52.236Z,9.20
2023-02-23T08:36:20.812Z,8.60
2023-02-23T08:38:48.169Z,9.23
2023-02-23T08:41:15.372Z,9.47
2023-02-23T08:43:44.107Z,8.90
2023-02-23T08:46:11.505Z,8.97
2023-02-23T08:48:40.330Z,9.20
2023-02-23T08:51:08.494Z,8.27
2023-02-23T08:53:36.415Z,8.97
2023-02-23T08:56:04.741Z,8.80
2023-02-23T08:58:32.721Z,9.60
2023-02-23T09:01:00.212Z,7.07
2023-02-23T09:03:30.087Z,8.90
2023-02-23T09:05:58.513Z,8.47
2023-02-23T09:08:25.817Z,8.53
2023-02-23T09:10:53.718Z,9.17
2023-02-23T09:13:20.849Z,9.03
2023-02-23T09:15:48.146Z,9.40
2023-02-23T09:18:15.359Z,9.03
2023-02-23T09:20:43.239Z,7.87
2023-02-23T09:23:10.534Z,10.30
2023-02-23T09:25:44.244Z,7.90
2023-02-23T09:28:15.873Z,9.57
2023-02-23T09:30:43.605Z,8.43
2023-02-23T09:33:10.926Z,10.43
2023-02-23T09:35:38.274Z,10.40
2023-02-23T09:38:06.887Z,10.63
2023-02-23T09:40:48.653Z,11.40
2023-02-23T09:43:34.807Z,11.63
2023-02-23T09:46:13.386Z,11.67
2023-02-23T09:48:40.735Z,11.37
2023-02-23T09:51:09.483Z,12.00
2023-02-23T09:53:48.963Z,12.43
2023-02-23T09:56:22.968Z,12.80
2023-02-23T09:58:50.406Z,13.07
2023-02-23T10:01:41.000Z,13.10
2023-02-23T10:04:27.067Z,13.53
2023-02-23T10:07:06.513Z,13.30
2023-02-23T10:10:02.987Z,14.27
2023-02-23T10:12:30.110Z,14.40
2023-02-23T10:15:02.107Z,14.77
2023-02-23T10:17:29.420Z,15.10
2023-02-23T10:20:15.416Z,14.40
2023-02-23T10:22:44.427Z,13.83
2023-02-23T10:25:13.962Z,14.70
2023-02-23T10:27:42.813Z,14.10
2023-02-23T10:30:21.853Z,14.00
2023-02-23T10:32:48.977Z,14.37
2023-02-23T10:35:18.241Z,14.13
2023-02-23T10:37:46.283Z,12.97
2023-02-23T10:40:18.203Z,14.83
2023-02-23T10:42:45.388Z,14.83
2023-02-23T10:45:18.669Z,14.20
2023-02-23T10:47:46.514Z,14.87
2023-02-23T10:50:14.902Z,15.00
2023-02-23T10:52:47.539Z,14.13
2023-02-23T10:55:43.466Z,15.47
2023-02-23T10:58:19.604Z,15.30
2023-02-23T11:00:57.043Z,15.73
2023-02-23T11:03:24.488Z,15.77
2023-02-23T11:05:53.608Z,16.53
2023-02-23T11:08:26.161Z,17.47
2023-02-23T11:11:19.359Z,17.40
2023-02-23T11:13:48.077Z,17.03
2023-02-23T11:16:17.058Z,18.37
2023-02-23T11:18:55.202Z,17.50
2023-02-23T11:21:23.967Z,17.27
2023-02-23T11:23:52.656Z,17.13
2023-02-23T11:26:37.108Z,17.70
2023-02-23T11:29:11.976Z,17.03
2023-02-23T11:31:40.713Z,19.30
2023-02-23T11:34:08.333Z,18.33
2023-02-23T11:36:36.697Z,18.90
2023-02-23T11:39:23.385Z,18.87
2023-02-23T11:42:14.802Z,19.20
2023-02-23T11:44:42.090Z,21.00
2023-02-23T11:47:19.044Z,18.77
2023-02-23T11:49:47.343Z,18.23
2023-02-23T11:52:19.965Z,18.23
2023-02-23T11:54:55.699Z,17.20
2023-02-23T11:57:24.264Z,14.27
2023-02-23T11:59:51.805Z,14.43
2023-02-23T12:02:26.381Z,13.63
2023-02-23T12:05:03.165Z,13.47
2023-02-23T12:07:38.910Z,14.00
2023-02-23T12:10:11.834Z,13.40
2023-02-23T12:12:48.057Z,12.70
2023-02-23T12:15:21.234Z,13.43
2023-02-23T12:17:51.837Z,12.57
2023-02-23T12:20:21.689Z,11.73
2023-02-23T12:23:00.439Z,10.73
2023-02-23T12:25:30.278Z,10.07
2023-02-23T12:27:59.040Z,10.73
2023-02-23T12:30:32.613Z,10.60
2023-02-23T12:33:20.057Z,9.00
2023-02-23T12:35:47.324Z,10.17
2023-02-23T12:38:33.237Z,8.57
2023-02-23T12:41:04.271Z,9.27
2023-02-23T12:43:49.188Z,9.10
2023-02-23T12:46:22.615Z,9.50
2023-02-23T12:49:08.791Z,10.40
2023-02-23T12:51:45.504Z,10.30
2023-02-23T12:54:13.382Z,10.80
2023-02-23T12:57:04.684Z,11.63
2023-02-23T12:59:47.084Z,14.37
2023-02-23T13:02:19.433Z,15.67
2023-02-23T13:04:56.347Z,15.40
2023-02-23T13:07:42.160Z,15.50
2023-02-23T13:10:16.503Z,13.53
2023-02-23T13:12:52.097Z,15.90
2023-02-23T13:15:38.055Z,15.63
2023-02-23T13:18:08.306Z,14.37
2023-02-23T13:20:40.665Z,15.97
2023-02-23T13:23:10.849Z,15.23
2023-02-23T13:25:41.669Z,16.53
2023-02-23T13:28:14.914Z,15.73
2023-02-23T13:30:47.317Z,16.13
2023-02-23T13:33:34.970Z,17.00
2023-02-23T13:36:05.777Z,17.70
2023-02-23T13:38:56.860Z,17.70
2023-02-23T13:41:30.127Z,21.60
2023-02-23T13:44:02.424Z,18.83
2023-02-23T13:46:41.592Z,19.23
2023-02-23T13:49:11.813Z,21.30
2023-02-23T13:51:39.126Z,20.33
2023-02-23T13:54:16.376Z,19.93
2023-02-23T13:56:52.129Z,21.53
2023-02-23T13:59:21.297Z,23.17
2023-02-23T14:01:50.954Z,22.47
2023-02-23T14:04:25.804Z,21.97
2023-02-23T14:06:56.468Z,23.40
2023-02-23T14:09:26.327Z,21.20
2023-02-23T14:11:57.019Z,20.07
2023-02-23T14:14:33.263Z,22.37
2023-02-23T14:17:32.571Z,20.57
2023-02-23T14:20:17.948Z,21.73
2023-02-23T14:23:10.171Z,25.67
2023-02-23T14:25:37.844Z,22.20
2023-02-23T14:28:22.677Z,20.70
2023-02-23T14:30:59.418Z,20.97
2023-02-23T14:33:42.269Z,23.70
2023-02-23T14:36:21.840Z,23.37
2023-02-23T14:39:01.141Z,27.93
2023-02-23T14:41:34.561Z,18.97
2023-02-23T14:44:10.621Z,18.53
2023-02-23T14:46:54.979Z,16.80
2023-02-23T14:49:22.853Z,14.67
2023-02-23T14:51:53.104Z,16.50
2023-02-23T14:54:33.267Z,15.33
2023-02-23T14:57:04.834Z,17.33
2023-02-23T14:59:42.170Z,16.13
2023-02-23T15:02:17.507Z,15.00
2023-02-23T15:04:44.731Z,13.17
2023-02-23T15:07:32.189Z,12.97
2023-02-23T15:10:00.756Z,13.97
2023-02-23T15:12:35.497Z,13.40
2023-02-23T15:15:04.298Z,13.77
2023-02-23T15:17:33.011Z,13.43
2023-02-23T15:20:14.651Z,13.73
2023-02-23T15:22:42.897Z,13.77
2023-02-23T15:25:14.824Z,13.70
2023-02-23T15:27:44.073Z,11.77
2023-02-23T15:30:27.729Z,12.70
2023-02-23T15:33:01.894Z,12.60
2023-02-23T15:35:30.176Z,12.40
2023-02-23T15:38:11.249Z,11.70
2023-02-23T15:40:45.990Z,11.70
2023-02-23T15:43:13.396Z,11.37
2023-02-23T15:45:48.685Z,12.97
2023-02-23T15:48:18.442Z,9.20
2023-02-23T15:50:50.294Z,9.50
2023-02-23T15:53:23.646Z,8.67
2023-02-23T15:55:53.431Z,7.90
2023-02-23T15:58:20.589Z,8.10
2023-02-23T16:00:51.645Z,7.50
2023-02-23T16:03:38.428Z,7.47
2023-02-23T16:06:07.528Z,7.67
2023-02-23T16:08:36.980Z,8.50
2023-02-23T16:11:16.053Z,9.47
2023-02-23T16:13:44.525Z,9.23
2023-02-23T16:16:19.167Z,8.83
2023-02-23T16:18:53.537Z,8.77
2023-02-23T16:21:22.246Z,8.30
2023-02-23T16:23:52.497Z,7.93
2023-02-23T16:26:28.922Z,7.30
2023-02-23T16:29:00.427Z,6.50
2023-02-23T16:31:46.599Z,6.87
2023-02-23T16:34:19.810Z,6.90
2023-02-23T16:36:49.616Z,7.27
2023-02-23T16:39:19.539Z,7.20
2023-02-23T16:41:47.437Z,5.87
2023-02-23T16:44:26.314Z,6.00
2023-02-23T16:46:57.219Z,5.47
2023-02-23T16:49:24.617Z,5.17
2023-02-23T16:51:52.064Z,5.27
2023-02-23T16:54:19.224Z,4.90
2023-02-23T16:56:47.011Z,4.90
2023-02-23T16:59:15.302Z,3.87
2023-02-23T17:01:42.467Z,3.13
2023-02-23T17:04:16.953Z,3.63
2023-02-23T17:06:44.758Z,3.57
2023-02-23T17:09:12.749Z,2.87
2023-02-23T17:11:41.037Z,3.30
2023-02-23T17:14:08.196Z,3.47
2023-02-23T17:16:35.438Z,3.20
2023-02-23T17:19:02.611Z,3.87
2023-02-23T17:21:31.706Z,3.50
2023-02-23T17:24:02.777Z,3.70
2023-02-23T17:26:30.057Z,2.47
2023-02-23T17:28:57.231Z,3.13
2023-02-23T17:31:27.079Z,3.03
2023-02-23T17:33:55.314Z,2.83
2023-02-23T17:36:23.933Z,2.90
2023-02-23T17:38:51.234Z,2.97
2023-02-23T17:41:19.645Z,2.30
2023-02-23T17:43:47.068Z,2.33
2023-02-23T17:46:14.324Z,2.50
2023-02-23T17:48:44.763Z,2.60
2023-02-23T17:51:13.059Z,2.30
2023-02-23T17:53:40.699Z,2.30
2023-02-23T17:56:08.364Z,2.60
2023-02-23T17:58:35.617Z,2.27
2023-02-23T18:01:03.266Z,1.90
2023-02-23T18:03:32.095Z,2.50
2023-02-23T18:06:00.505Z,2.30
2023-02-23T18:08:27.752Z,2.40
2023-02-23T18:10:55.440Z,2.47
2023-02-23T18:13:23.072Z,2.47
2023-02-23T18:15:54.630Z,3.17
2023-02-23T18:18:23.903Z,2.80
2023-02-23T18:20:58.437Z,2.67
2023-02-23T18:23:28.765Z,2.70
2023-02-23T18:25:55.921Z,2.70
2023-02-23T18:28:23.067Z,2.70
2023-02-23T18:30:50.276Z,2.20
2023-02-23T18:33:18.665Z,2.70
2023-02-23T18:35:46.089Z,2.57
2023-02-23T18:38:14.203Z,2.90
2023-02-23T18:40:41.667Z,2.30
2023-02-23T18:43:09.059Z,2.60
2023-02-23T18:45:36.203Z,2.23
2023-02-23T18:48:03.444Z,2.20
2023-02-23T18:50:31.172Z,2.40
2023-02-23T18:53:03.258Z,2.10
2023-02-23T18:55:30.423Z,2.00
2023-02-23T18:57:57.609Z,2.10
2023-02-23T19:00:24.883Z,1.60
2023-02-23T19:02:52.157Z,1.60
2023-02-23T19:05:21.716Z,1.60
2023-02-23T19:07:49.280Z,1.50
2023-02-23T19:10:16.611Z,1.50
2023-02-23T19:12:43.965Z,1.70
2023-02-23T19:15:12.154Z,2.00
2023-02-23T19:17:39.409Z,1.90
2023-02-23T19:20:13.639Z,2.10
2023-02-23T19:22:41.428Z,2.00
2023-02-23T19:25:11.620Z,1.80
2023-02-23T19:27:39.141Z,1.93
2023-02-23T19:30:09.872Z,1.73
2023-02-23T19:32:39.506Z,2.20
2023-02-23T19:35:08.218Z,1.87
2023-02-23T19:37:35.451Z,1.67
2023-02-23T19:40:03.829Z,1.80
2023-02-23T19:42:32.687Z,1.57
2023-02-23T19:45:00.071Z,1.77
2023-02-23T19:47:27.378Z,1.80
2023-02-23T19:49:54.918Z,1.80
2023-02-23T19:52:23.226Z,1.90
2023-02-23T19:54:50.397Z,1.90
2023-02-23T19:57:17.645Z,2.00
2023-02-23T19:59:44.900Z,1.80
2023-02-23T20:02:12.112Z,2.30
2023-02-23T20:04:39.347Z,1.80
2023-02-23T20:07:07.497Z,1.70
2023-02-23T20:09:34.756Z,1.80
2023-02-23T20:12:01.930Z,1.70
2023-02-23T20:14:29.168Z,1.80
2023-02-23T20:16:56.323Z,1.90
2023-02-23T20:19:24.361Z,1.57
2023-02-23T20:21:51.646Z,1.60
2023-02-23T20:24:19.056Z,1.70
2023-02-23T20:26:46.862Z,1.60
2023-02-23T20:29:18.028Z,1.70
2023-02-23T20:31:50.385Z,1.80
2023-02-23T20:34:23.990Z,1.30
2023-02-23T20:36:51.584Z,1.40
2023-02-23T20:39:19.054Z,1.10
2023-02-23T20:41:47.706Z,1.13
2023-02-23T20:44:15.929Z,1.40
2023-02-23T20:46:44.592Z,1.37
2023-02-23T20:49:16.651Z,1.30
2023-02-23T20:51:45.106Z,1.23
2023-02-23T20:54:13.039Z,1.70
2023-02-23T20:56:41.975Z,1.40
2023-02-23T20:59:12.523Z,1.50
2023-02-23T21:01:40.800Z,1.30
2023-02-23T21:04:08.137Z,1.40
2023-02-23T21:06:35.541Z,1.50
2023-02-23T21:09:04.241Z,1.67
2023-02-23T21:11:32.143Z,1.60
2023-02-23T21:14:00.109Z,1.50
2023-02-23T21:16:32.156Z,1.50
2023-02-23T21:19:05.279Z,1.47
2023-02-23T21:21:38.543Z,1.60
2023-02-23T21:24:05.740Z,1.70
2023-02-23T21:26:34.212Z,1.40
2023-02-23T21:29:02.154Z,1.30
2023-02-23T21:31:29.380Z,1.50
2023-02-23T21:33:56.902Z,1.60
2023-02-23T21:36:24.371Z,1.50
2023-02-23T21:38:51.620Z,1.60
2023-02-23T21:41:19.178Z,2.13
2023-02-23T21:43:46.723Z,1.83
2023-02-23T21:46:15.713Z,1.60
2023-02-23T21:48:43.622Z,1.50
2023-02-23T21:51:12.473Z,1.97
2023-02-23T21:53:40.048Z,1.70
2023-02-23T21:56:11.623Z,1.80
2023-02-23T21:58:46.598Z,2.00
2023-02-23T22:01:15.073Z,1.90
2023-02-23T22:03:44.956Z,1.90
2023-02-23T22:06:16.738Z,2.10
2023-02-23T22:08:44.866Z,2.20
2023-02-23T22:11:17.086Z,2.07
2023-02-23T22:13:45.292Z,1.93
2023-02-23T22:16:14.150Z,1.80
2023-02-23T22:18:44.487Z,2.10
2023-02-23T22:21:12.741Z,2.10
2023-02-23T22:23:50.201Z,2.30
2023-02-23T22:26:18.564Z,2.30
2023-02-23T22:28:45.693Z,3.50
2023-02-23T22:31:13.874Z,3.80
2023-02-23T22:33:42.904Z,3.30
2023-02-23T22:36:13.209Z,2.90
2023-02-23T22:38:41.444Z,2.20
2023-02-23T22:41:10.089Z,2.40
2023-02-23T22:43:37.961Z,2.27
2023-02-23T22:46:06.356Z,2.17
2023-02-23T22:48:33.653Z,2.03
2023-02-23T22:51:01.260Z,2.90
2023-02-23T22:53:28.845Z,2.83
2023-02-23T22:55:56.405Z,2.93
2023-02-23T22:58:24.434Z,2.57
2023-02-23T23:01:04.685Z,2.67
2023-02-23T23:03:39.509Z,2.27
2023-02-23T23:06:08.096Z,4.43
2023-02-23T23:08:37.068Z,3.07
2023-02-23T23:11:09.354Z,3.03
2023-02-23T23:13:37.640Z,2.93
2023-02-23T23:16:16.937Z,3.40
2023-02-23T23:18:56.676Z,2.67
2023-02-23T23:21:26.331Z,4.03
2023-02-23T23:23:54.667Z,4.70
2023-02-23T23:26:23.323Z,3.90
2023-02-23T23:28:51.870Z,3.07
2023-02-23T23:31:22.519Z,3.53
2023-02-23T23:33:51.565Z,3.73
2023-02-23T23:36:19.866Z,3.60
2023-02-23T23:38:47.083Z,2.97
2023-02-23T23:41:14.581Z,3.30
2023-02-23T23:43:48.626Z,3.40
2023-02-23T23:46:22.796Z,2.77
2023-02-23T23:48:54.231Z,2.73
2023-02-23T23:51:24.257Z,2.70
2023-02-23T23:53:52.390Z,2.70
2023-02-23T23:56:21.155Z,3.00
2023-02-23T23:58:49.430Z,3.33
